Time;durP1;ratioP1;P1;durP2;ratioP2;P2;SDS_P1;SDS_P2;PMS_P1;PMS_P2;Temp;Humidity;BMP_temperature;BMP_pressure;BME280_temperature;BME280_humidity;BME280_pressure;Samples;Min_cycle;Max_cycle;Signal;HPM_P1;HPM_P2
2023/01/17 00:00:29;;;;;;;0.50;0.50;;;18.10;55.40;;;;;;5114120;28;20539;-60
2023/01/17 00:02:54;;;;;;;0.40;0.40;;;18.10;55.30;;;;;;5113552;28;20646;-60
2023/01/17 00:10:48;;;;;;;0.95;0.40;;;18.10;55.40;;;;;;5113572;28;20179;-59
2023/01/17 00:13:13;;;;;;;0.73;0.40;;;18.00;55.30;;;;;;5078196;28;20177;-60
2023/01/17 00:15:39;;;;;;;0.28;0.28;;;18.00;55.30;;;;;;5113394;28;20213;-59
2023/01/17 00:18:04;;;;;;;0.30;0.30;;;18.00;55.30;;;;;;5113570;28;20303;-60
2023/01/17 00:26:03;;;;;;;0.40;0.20;;;18.00;55.30;;;;;;5113653;28;20191;-59
2023/01/17 01:35:18;;;;;;;0.52;0.52;;;17.60;55.30;;;;;;5117024;28;20210;-60
2023/01/17 01:37:44;;;;;;;0.50;0.30;;;17.60;55.30;;;;;;5115877;28;20205;-60
2023/01/17 01:40:10;;;;;;;0.40;0.40;;;17.50;55.20;;;;;;5116755;28;20603;-60
2023/01/17 01:42:35;;;;;;;0.30;0.20;;;17.50;55.10;;;;;;5116331;28;20262;-60
2023/01/17 01:45:06;;;;;;;1.13;0.52;;;17.50;55.20;;;;;;5115901;28;20197;-60
2023/01/17 01:47:37;;;;;;;0.38;0.20;;;17.50;55.30;;;;;;5098041;28;20177;-60
2023/01/17 01:50:04;;;;;;;0.57;0.35;;;17.50;55.30;;;;;;5098626;28;20174;-59
2023/01/17 01:52:30;;;;;;;1.48;0.43;;;17.50;55.30;;;;;;5115834;28;20538;-59
2023/01/17 01:55:23;;;;;;;0.75;0.40;;;17.50;55.30;;;;;;5081338;28;20169;-59
2023/01/17 01:57:49;;;;;;;0.88;0.30;;;17.40;55.30;;;;;;5059623;28;20213;-60
2023/01/17 02:00:16;;;;;;;0.70;0.30;;;17.40;55.30;;;;;;5116584;28;20184;-60
2023/01/17 02:02:42;;;;;;;0.65;0.30;;;17.40;55.30;;;;;;5116112;28;20184;-60
2023/01/17 02:05:08;;;;;;;0.65;0.40;;;17.40;55.20;;;;;;5097638;28;20185;-60
2023/01/17 02:07:37;;;;;;;0.73;0.40;;;17.40;55.20;;;;;;5116192;28;20639;-59
2023/01/17 02:10:03;;;;;;;0.45;0.40;;;17.40;55.20;;;;;;5081315;28;20373;-59
2023/01/17 02:12:28;;;;;;;0.80;0.40;;;17.40;55.20;;;;;;5115759;28;20177;-59
2023/01/17 02:14:54;;;;;;;0.30;0.30;;;17.40;55.20;;;;;;5097880;28;20173;-60
2023/01/17 02:17:38;;;;;;;0.70;0.40;;;17.40;55.20;;;;;;5115817;28;20577;-60
2023/01/17 02:20:28;;;;;;;0.38;0.30;;;17.30;55.10;;;;;;5115452;28;20189;-60
2023/01/17 02:23:10;;;;;;;0.45;0.30;;;17.30;55.10;;;;;;5115551;28;20199;-59
2023/01/17 02:25:51;;;;;;;0.43;0.30;;;17.30;55.10;;;;;;5097528;28;20177;-59
2023/01/17 02:28:16;;;;;;;1.65;0.40;;;17.30;55.10;;;;;;5097937;28;20169;-59
2023/01/17 02:30:44;;;;;;;1.13;0.60;;;17.30;55.10;;;;;;5115433;28;20290;-59
2023/01/17 02:33:19;;;;;;;0.30;0.30;;;17.30;55.00;;;;;;5097261;28;20663;-60
2023/01/17 02:36:08;;;;;;;0.52;0.40;;;17.30;55.10;;;;;;5097097;28;20534;-60
2023/01/17 02:38:46;;;;;;;1.63;0.45;;;17.30;55.10;;;;;;5115342;28;20208;-60
2023/01/17 02:41:22;;;;;;;0.55;0.30;;;17.20;55.00;;;;;;5096656;28;20229;-60
2023/01/17 02:43:49;;;;;;;1.15;0.30;;;17.20;55.60;;;;;;5097379;28;20248;-60
2023/01/17 02:46:14;;;;;;;0.90;0.60;;;17.20;54.90;;;;;;5097439;28;20173;-60
2023/01/17 02:48:40;;;;;;;0.70;0.32;;;17.20;54.80;;;;;;5114597;28;20199;-59
2023/01/17 02:51:11;;;;;;;0.60;0.40;;;17.20;54.90;;;;;;5115238;28;20202;-59
2023/01/17 02:53:59;;;;;;;0.70;0.30;;;17.20;54.90;;;;;;5115198;28;20173;-59
2023/01/17 02:56:34;;;;;;;0.93;0.47;;;17.20;54.90;;;;;;5082620;28;20209;-59
2023/01/17 02:59:05;;;;;;;0.70;0.40;;;17.20;54.80;;;;;;5115206;28;20696;-59
2023/01/17 03:01:41;;;;;;;0.38;0.38;;;17.10;54.70;;;;;;5096297;28;20549;-60
2023/01/17 03:04:17;;;;;;;1.55;0.40;;;17.10;54.80;;;;;;5097074;28;20176;-60
2023/01/17 03:06:51;;;;;;;0.30;0.30;;;17.10;54.90;;;;;;5080468;28;20252;-59
2023/01/17 03:09:28;;;;;;;0.30;0.30;;;17.10;54.80;;;;;;5080004;28;20222;-62
2023/01/17 03:11:54;;;;;;;0.47;0.47;;;17.10;54.80;;;;;;5096500;28;20173;-60
2023/01/17 03:14:19;;;;;;;0.68;0.30;;;17.10;54.80;;;;;;5115002;28;20264;-61
2023/01/17 03:16:45;;;;;;;1.38;0.50;;;17.10;54.70;;;;;;5113533;28;20256;-59
2023/01/17 03:19:13;;;;;;;0.50;0.20;;;17.10;54.60;;;;;;5114831;28;20247;-59
2023/01/17 03:21:39;;;;;;;0.93;0.43;;;17.00;54.50;;;;;;5114009;28;20665;-59
2023/01/17 03:24:04;;;;;;;0.40;0.30;;;17.00;55.00;;;;;;5114332;28;20181;-58
2023/01/17 03:26:30;;;;;;;0.30;0.30;;;17.00;54.50;;;;;;5114947;28;20190;-58
2023/01/17 03:28:58;;;;;;;0.95;0.32;;;17.00;54.60;;;;;;5114033;28;20629;-58
2023/01/17 03:31:24;;;;;;;1.15;0.40;;;17.00;54.40;;;;;;5114614;28;20169;-58
2023/01/17 03:33:50;;;;;;;0.30;0.30;;;17.00;54.50;;;;;;5114358;28;20180;-59
2023/01/17 03:36:15;;;;;;;0.88;0.47;;;17.00;54.60;;;;;;5113984;28;20794;-59
2023/01/17 03:38:41;;;;;;;0.80;0.60;;;17.00;54.50;;;;;;5114155;28;20224;-59
2023/01/17 03:41:06;;;;;;;0.50;0.35;;;17.00;54.50;;;;;;5114577;28;20689;-59
2023/01/17 03:43:32;;;;;;;0.32;0.30;;;16.90;54.50;;;;;;5113478;28;20183;-59
2023/01/17 03:46:02;;;;;;;0.82;0.47;;;16.90;54.50;;;;;;5114302;28;20530;-59
2023/01/17 03:48:27;;;;;;;1.20;0.40;;;16.90;54.50;;;;;;5114486;28;20208;-58
2023/01/17 03:50:53;;;;;;;0.38;0.38;;;17.00;54.60;;;;;;5113269;28;20207;-58
2023/01/17 03:53:18;;;;;;;0.43;0.35;;;16.90;54.50;;;;;;5114446;28;20165;-58
2023/01/17 03:55:44;;;;;;;0.35;0.30;;;16.90;54.50;;;;;;5113734;28;20169;-58
2023/01/17 03:58:10;;;;;;;0.30;0.30;;;16.90;54.50;;;;;;5113327;28;20252;-59
2023/01/17 04:00:35;;;;;;;0.45;0.25;;;16.90;54.50;;;;;;5113552;28;20201;-59
2023/01/17 04:03:01;;;;;;;0.30;0.30;;;16.90;54.50;;;;;;5114010;28;20635;-59
2023/01/17 04:05:27;;;;;;;0.30;0.20;;;16.90;54.60;;;;;;5113365;28;20176;-59
2023/01/17 04:07:52;;;;;;;0.25;0.20;;;16.90;54.60;;;;;;5113749;28;20214;-58
2023/01/17 04:10:18;;;;;;;0.20;0.20;;;16.90;54.60;;;;;;5114245;28;20181;-58
2023/01/17 04:12:43;;;;;;;0.55;0.25;;;16.80;54.50;;;;;;5112831;28;20177;-59
2023/01/17 04:15:09;;;;;;;0.28;0.28;;;16.90;54.60;;;;;;5113695;28;20173;-59
2023/01/17 04:17:35;;;;;;;0.20;0.20;;;16.80;54.50;;;;;;5112971;28;20228;-59
2023/01/17 04:20:00;;;;;;;0.28;0.25;;;16.80;54.60;;;;;;5095079;28;20181;-59
2023/01/17 04:22:26;;;;;;;0.70;0.40;;;16.80;54.50;;;;;;5113757;28;20692;-59
2023/01/17 04:24:51;;;;;;;0.28;0.28;;;16.80;54.50;;;;;;5113492;28;20703;-59
2023/01/17 04:27:17;;;;;;;0.75;0.65;;;16.80;54.50;;;;;;5112905;28;20686;-58
2023/01/17 04:29:42;;;;;;;0.40;0.40;;;16.80;54.50;;;;;;5113270;28;20537;-60
2023/01/17 04:32:08;;;;;;;0.30;0.30;;;16.80;54.50;;;;;;5112844;28;20659;-59
2023/01/17 04:34:34;;;;;;;0.40;0.40;;;16.80;54.40;;;;;;5112679;28;20177;-60
2023/01/17 04:36:59;;;;;;;0.50;0.30;;;16.70;54.30;;;;;;5113644;28;20538;-60
2023/01/17 04:39:25;;;;;;;0.40;0.40;;;16.80;54.40;;;;;;5112613;28;20618;-60
2023/01/17 04:41:50;;;;;;;0.50;0.30;;;16.70;54.30;;;;;;5113087;28;20608;-60
2023/01/17 04:44:16;;;;;;;0.30;0.30;;;16.70;54.30;;;;;;5113292;28;20294;-59
2023/01/17 04:46:41;;;;;;;0.63;0.40;;;16.70;54.40;;;;;;5112554;28;20260;-60
2023/01/17 04:49:07;;;;;;;0.47;0.40;;;16.70;54.40;;;;;;5113543;28;20282;-59
2023/01/17 04:51:32;;;;;;;0.50;0.30;;;16.70;54.40;;;;;;5113099;28;20540;-59
2023/01/17 04:53:58;;;;;;;0.25;0.25;;;16.70;54.30;;;;;;5112499;28;20635;-59
2023/01/17 04:56:23;;;;;;;0.95;0.38;;;16.70;54.40;;;;;;5113304;28;20173;-59
2023/01/17 04:58:49;;;;;;;1.85;0.47;;;16.70;54.30;;;;;;5112789;28;20201;-60
2023/01/17 05:01:14;;;;;;;0.80;0.30;;;16.70;54.20;;;;;;5112539;28;20176;-59
2023/01/17 05:03:40;;;;;;;0.57;0.30;;;16.70;54.30;;;;;;5113136;28;20177;-60
2023/01/17 05:06:05;;;;;;;0.20;0.20;;;16.60;54.30;;;;;;5113231;28;20695;-60
2023/01/17 05:08:31;;;;;;;1.05;0.47;;;16.60;54.30;;;;;;5112251;28;20223;-59
2023/01/17 05:10:57;;;;;;;0.85;0.40;;;16.60;54.30;;;;;;5113014;28;20643;-59
2023/01/17 05:13:22;;;;;;;0.82;0.50;;;16.60;54.30;;;;;;5113077;28;20177;-59
2023/01/17 05:15:48;;;;;;;0.43;0.40;;;16.60;54.30;;;;;;5112088;28;20515;-59
2023/01/17 05:18:14;;;;;;;0.57;0.30;;;16.60;54.30;;;;;;5095100;28;20818;-60
2023/01/17 05:20:40;;;;;;;0.40;0.35;;;16.60;54.20;;;;;;5112886;28;20184;-60
2023/01/17 05:23:06;;;;;;;0.60;0.40;;;16.60;54.30;;;;;;5112481;28;20538;-60
2023/01/17 05:25:31;;;;;;;0.70;0.40;;;16.60;54.30;;;;;;5112927;28;20515;-59
2023/01/17 05:27:58;;;;;;;0.47;0.40;;;16.60;54.30;;;;;;5112958;28;20181;-60
2023/01/17 05:30:24;;;;;;;0.30;0.30;;;16.50;54.20;;;;;;5112278;28;20252;-60
2023/01/17 05:32:56;;;;;;;0.30;0.30;;;16.50;54.20;;;;;;5112770;28;20346;-60
2023/01/17 05:35:27;;;;;;;1.27;0.40;;;16.60;54.30;;;;;;5113018;28;20169;-60
2023/01/17 05:37:53;;;;;;;0.38;0.38;;;16.50;54.20;;;;;;5111869;28;20255;-60
2023/01/17 05:40:22;;;;;;;0.47;0.30;;;16.50;54.10;;;;;;5112785;28;20212;-61
2023/01/17 05:42:49;;;;;;;0.85;0.40;;;16.50;54.20;;;;;;5111700;28;20649;-61
2023/01/17 05:45:15;;;;;;;1.17;0.30;;;16.50;54.30;;;;;;5116929;28;20180;-60
2023/01/17 05:47:44;;;;;;;0.98;0.40;;;16.50;54.20;;;;;;5116436;28;20173;-60
2023/01/17 05:50:15;;;;;;;0.32;0.30;;;16.50;54.30;;;;;;5116038;28;20177;-60
2023/01/17 05:52:41;;;;;;;1.20;0.50;;;16.50;54.30;;;;;;5116101;28;20185;-60
2023/01/17 05:55:07;;;;;;;2.08;0.43;;;16.50;54.40;;;;;;5116375;28;20170;-62
2023/01/17 05:57:33;;;;;;;1.17;0.43;;;16.50;54.30;;;;;;5115598;28;20223;-59
2023/01/17 05:59:58;;;;;;;0.65;0.40;;;16.40;54.10;;;;;;5116318;28;20180;-60
2023/01/17 06:02:24;;;;;;;0.65;0.50;;;16.40;54.10;;;;;;5116285;28;20209;-60
2023/01/17 06:04:50;;;;;;;0.40;0.40;;;16.40;54.20;;;;;;5115374;28;20211;-60
2023/01/17 06:07:15;;;;;;;0.40;0.40;;;16.40;54.90;;;;;;5116358;28;20191;-59
2023/01/17 06:09:41;;;;;;;0.40;0.40;;;16.40;54.20;;;;;;5115818;28;20252;-59
2023/01/17 06:12:06;;;;;;;0.38;0.30;;;16.40;54.30;;;;;;5115449;28;20234;-59
2023/01/17 06:14:32;;;;;;;0.98;0.50;;;16.40;54.40;;;;;;5116077;28;20177;-60
2023/01/17 06:16:57;;;;;;;0.75;0.50;;;16.40;54.30;;;;;;5116006;28;20231;-59
2023/01/17 06:19:23;;;;;;;0.43;0.40;;;16.40;54.20;;;;;;5115234;28;20304;-60
2023/01/17 06:21:48;;;;;;;1.08;0.38;;;16.40;54.20;;;;;;5115738;28;20260;-59
2023/01/17 06:24:14;;;;;;;0.77;0.45;;;16.40;54.20;;;;;;5115929;28;20201;-59
2023/01/17 06:26:42;;;;;;;1.05;0.30;;;16.40;54.20;;;;;;5114808;28;20193;-59
2023/01/17 06:29:09;;;;;;;2.70;0.50;;;16.40;54.20;;;;;;5115838;28;20679;-59
2023/01/17 06:31:35;;;;;;;0.45;0.38;;;16.40;54.20;;;;;;5115529;28;20184;-60
2023/01/17 06:34:02;;;;;;;0.75;0.50;;;16.30;54.10;;;;;;5115219;28;20177;-60
2023/01/17 06:36:27;;;;;;;0.77;0.50;;;16.30;54.10;;;;;;5115863;28;20538;-60
2023/01/17 06:38:53;;;;;;;0.43;0.43;;;16.30;54.10;;;;;;5114459;28;20201;-60
2023/01/17 06:41:18;;;;;;;1.48;0.47;;;16.30;54.10;;;;;;5115634;28;20569;-60
2023/01/17 06:43:44;;;;;;;1.00;0.43;;;16.30;54.10;;;;;;5115321;28;20649;-61
2023/01/17 06:46:09;;;;;;;0.60;0.50;;;16.30;54.20;;;;;;5114727;28;20342;-60
2023/01/17 06:48:35;;;;;;;1.00;0.60;;;16.30;54.10;;;;;;5115279;28;20310;-60
2023/01/17 06:51:00;;;;;;;0.70;0.50;;;16.30;54.20;;;;;;5115445;28;20541;-60
2023/01/17 06:53:26;;;;;;;0.60;0.40;;;16.30;54.20;;;;;;5114666;28;20631;-60
2023/01/17 06:55:55;;;;;;;0.75;0.70;;;16.20;54.20;;;;;;5114277;28;20745;-60
2023/01/17 06:58:20;;;;;;;1.73;0.60;;;16.30;54.20;;;;;;5115470;28;20205;-60
2023/01/17 07:00:46;;;;;;;0.63;0.50;;;16.30;54.50;;;;;;5114326;28;20175;-60
2023/01/17 07:03:32;;;;;;;0.60;0.45;;;16.30;54.40;;;;;;5115224;28;20260;-61
2023/01/17 07:06:00;;;;;;;1.10;0.50;;;16.30;54.40;;;;;;5099578;28;20409;-60
2023/01/17 07:08:25;;;;;;;0.40;0.40;;;16.30;54.10;;;;;;5114287;28;20169;-60
2023/01/17 07:10:56;;;;;;;1.77;0.60;;;16.40;54.10;;;;;;5096687;28;20268;-60
2023/01/17 07:13:21;;;;;;;1.05;0.50;;;16.40;54.00;;;;;;5114865;28;20537;-60
2023/01/17 07:15:47;;;;;;;1.52;0.60;;;16.50;54.10;;;;;;5113653;28;20177;-61
2023/01/17 07:18:13;;;;;;;0.40;0.40;;;16.50;55.00;;;;;;5114696;28;20205;-61
2023/01/17 07:20:39;;;;;;;0.63;0.45;;;16.60;54.30;;;;;;5114323;28;20627;-61
2023/01/17 07:23:05;;;;;;;0.50;0.35;;;16.60;54.20;;;;;;5114059;28;20518;-60
2023/01/17 07:25:31;;;;;;;1.10;0.50;;;16.60;54.20;;;;;;5114698;28;20218;-60
2023/01/17 07:27:56;;;;;;;0.73;0.40;;;16.70;54.30;;;;;;5114692;28;20173;-60
2023/01/17 07:30:22;;;;;;;0.93;0.50;;;16.70;54.20;;;;;;5114184;28;20177;-60
2023/01/17 07:32:54;;;;;;;1.38;0.55;;;16.80;54.20;;;;;;5114194;28;20181;-61
2023/01/17 07:35:20;;;;;;;0.95;0.50;;;16.70;54.10;;;;;;5113722;28;20168;-61
2023/01/17 07:37:49;;;;;;;0.50;0.43;;;16.70;54.10;;;;;;5114336;28;20172;-61
2023/01/17 07:40:18;;;;;;;0.98;0.40;;;16.70;54.10;;;;;;5114648;28;20181;-61
2023/01/17 07:42:44;;;;;;;1.75;0.60;;;16.70;54.10;;;;;;5113482;28;20582;-62
2023/01/17 07:45:10;;;;;;;0.40;0.40;;;16.70;54.10;;;;;;5114347;28;20260;-61
2023/01/17 07:47:36;;;;;;;0.77;0.40;;;16.70;54.10;;;;;;5113868;28;20176;-61
2023/01/17 07:50:02;;;;;;;0.73;0.70;;;16.60;54.00;;;;;;5113641;28;20176;-61
2023/01/17 07:52:28;;;;;;;0.70;0.50;;;16.60;54.00;;;;;;5114805;28;20180;-68
2023/01/17 07:54:53;;;;;;;1.27;0.50;;;16.60;54.10;;;;;;5113927;28;20173;-73
2023/01/17 07:57:19;;;;;;;0.57;0.50;;;16.60;54.10;;;;;;5113473;28;20173;-72
2023/01/17 07:59:44;;;;;;;1.08;0.68;;;16.70;54.20;;;;;;5113559;28;20208;-68
2023/01/17 08:02:16;;;;;;;1.70;0.63;;;16.70;54.30;;;;;;5113940;28;20197;-69
2023/01/17 08:04:42;;;;;;;1.35;0.70;;;16.70;54.40;;;;;;5095366;28;20627;-66
2023/01/17 08:07:07;;;;;;;0.77;0.55;;;16.70;54.70;;;;;;5114003;28;20283;-67
2023/01/17 08:09:33;;;;;;;1.40;0.70;;;16.60;54.70;;;;;;5113568;28;20169;-67
2023/01/17 08:11:58;;;;;;;1.52;0.47;;;16.60;55.20;;;;;;5113111;28;20181;-66
2023/01/17 08:14:24;;;;;;;1.25;0.80;;;16.60;55.30;;;;;;5113861;28;20177;-66
2023/01/17 08:16:49;;;;;;;2.08;0.80;;;16.60;55.10;;;;;;5113296;28;20221;-66
2023/01/17 08:19:15;;;;;;;1.08;0.90;;;16.60;55.00;;;;;;5112837;28;20253;-66
2023/01/17 08:21:41;;;;;;;1.23;0.75;;;16.60;55.10;;;;;;5113533;28;20173;-65
2023/01/17 08:24:11;;;;;;;3.47;0.88;;;16.50;55.00;;;;;;5113719;28;20173;-65
2023/01/17 08:26:37;;;;;;;1.98;1.23;;;16.50;55.10;;;;;;5112641;28;20172;-66
2023/01/17 08:29:02;;;;;;;0.90;0.52;;;16.50;55.10;;;;;;5113805;28;20576;-65
2023/01/17 08:31:32;;;;;;;1.85;0.60;;;16.50;55.10;;;;;;5112857;28;20736;-66
2023/01/17 08:33:58;;;;;;;2.63;1.00;;;16.60;55.00;;;;;;5113492;28;20662;-65
2023/01/17 08:36:27;;;;;;;0.93;0.70;;;16.60;55.10;;;;;;5113404;28;20302;-65
2023/01/17 08:38:53;;;;;;;1.77;0.73;;;16.60;55.10;;;;;;5112422;28;20212;-65
2023/01/17 08:41:19;;;;;;;1.30;0.85;;;16.60;55.10;;;;;;5113495;28;20177;-65
2023/01/17 08:43:48;;;;;;;2.33;0.88;;;16.50;55.10;;;;;;5113192;28;20184;-66
2023/01/17 08:46:13;;;;;;;1.60;0.82;;;16.40;55.00;;;;;;5112734;28;20523;-65
2023/01/17 08:48:39;;;;;;;1.98;0.88;;;16.50;55.10;;;;;;5113192;28;20184;-65
2023/01/17 08:51:06;;;;;;;2.15;1.00;;;16.50;55.20;;;;;;5113496;28;20542;-65
2023/01/17 08:53:31;;;;;;;1.23;1.00;;;16.50;55.30;;;;;;5112531;28;20283;-65
2023/01/17 08:56:01;;;;;;;1.17;0.85;;;16.50;55.20;;;;;;5113197;28;20201;-65
2023/01/17 08:58:27;;;;;;;1.38;0.88;;;16.60;55.00;;;;;;5113106;28;20235;-65
2023/01/17 09:00:52;;;;;;;2.33;1.05;;;16.60;54.90;;;;;;5112120;28;20626;-65
2023/01/17 09:03:18;;;;;;;1.13;0.80;;;16.60;54.80;;;;;;5113128;28;20196;-66
2023/01/17 09:05:43;;;;;;;2.97;0.95;;;16.70;54.80;;;;;;5112949;28;20176;-65
2023/01/17 09:08:10;;;;;;;1.77;0.85;;;16.80;54.80;;;;;;5112683;28;20177;-65
2023/01/17 09:10:35;;;;;;;2.15;1.00;;;16.90;54.80;;;;;;5113144;28;20173;-65
2023/01/17 09:13:01;;;;;;;1.38;1.00;;;16.90;54.70;;;;;;5113004;28;20574;-65
2023/01/17 09:15:26;;;;;;;1.60;0.90;;;16.90;54.70;;;;;;5112373;28;20512;-66
2023/01/17 09:17:55;;;;;;;1.05;0.82;;;16.90;55.30;;;;;;5112634;28;20788;-66
2023/01/17 09:20:21;;;;;;;1.80;1.13;;;16.90;54.60;;;;;;5117093;28;20526;-66
2023/01/17 09:22:47;;;;;;;2.20;0.90;;;16.80;54.70;;;;;;5116172;28;20674;-66
2023/01/17 09:25:12;;;;;;;3.63;1.08;;;16.80;54.70;;;;;;5117055;28;20200;-65
2023/01/17 09:27:38;;;;;;;1.77;1.10;;;16.80;54.80;;;;;;5116185;28;20184;-65
2023/01/17 09:30:04;;;;;;;1.67;0.98;;;16.80;55.00;;;;;;5117160;28;20267;-65
2023/01/17 09:32:29;;;;;;;1.42;0.88;;;16.80;54.70;;;;;;5116930;28;20310;-66
2023/01/17 09:34:59;;;;;;;1.85;0.93;;;16.90;54.70;;;;;;5116267;28;20178;-66
2023/01/17 09:37:25;;;;;;;2.72;1.13;;;16.90;54.70;;;;;;5117074;28;20216;-66
2023/01/17 09:39:50;;;;;;;2.10;0.90;;;16.90;54.60;;;;;;5116580;28;20265;-65
2023/01/17 09:42:32;;;;;;;1.08;0.80;;;17.00;54.70;;;;;;5116071;28;20170;-65
2023/01/17 09:44:57;;;;;;;3.33;1.00;;;17.00;54.70;;;;;;5082482;28;20180;-65
2023/01/17 09:47:39;;;;;;;2.03;0.90;;;17.00;54.70;;;;;;5116761;28;20173;-65
2023/01/17 09:50:25;;;;;;;1.80;1.20;;;17.00;54.70;;;;;;5115951;28;20169;-65
2023/01/17 09:53:00;;;;;;;1.10;0.95;;;16.90;54.70;;;;;;5116185;28;20635;-65
2023/01/17 09:55:26;;;;;;;2.42;1.33;;;16.90;54.80;;;;;;5082616;28;20638;-65
2023/01/17 09:57:59;;;;;;;1.30;1.20;;;16.90;54.80;;;;;;5080702;28;20213;-65
2023/01/17 10:00:41;;;;;;;1.70;1.10;;;16.90;54.80;;;;;;5098388;28;20169;-65
2023/01/17 10:03:41;;;;;;;3.33;1.20;;;16.80;54.90;;;;;;5115652;28;20171;-66
2023/01/17 10:06:19;;;;;;;1.42;0.95;;;16.90;55.00;;;;;;5101033;28;20639;-66
2023/01/17 10:09:09;;;;;;;0.93;0.80;;;16.90;54.90;;;;;;5097960;28;20173;-66
2023/01/17 10:11:42;;;;;;;2.05;1.13;;;16.90;54.80;;;;;;5115428;28;20169;-66
2023/01/17 10:14:40;;;;;;;2.05;1.20;;;16.80;54.80;;;;;;5098932;28;20184;-66
2023/01/17 10:17:28;;;;;;;1.30;1.00;;;16.80;54.90;;;;;;5115284;28;20225;-71
2023/01/17 10:20:10;;;;;;;1.60;0.95;;;16.80;54.90;;;;;;5115550;28;20224;-71
2023/01/17 10:23:07;;;;;;;1.88;1.45;;;16.80;54.90;;;;;;5116263;28;20583;-77
2023/01/17 10:25:46;;;;;;;1.23;1.10;;;16.70;55.60;;;;;;5113882;28;20182;-74
2023/01/17 10:28:24;;;;;;;1.17;1.08;;;16.70;55.00;;;;;;5115457;28;20238;-73
2023/01/17 10:31:09;;;;;;;2.78;1.30;;;16.80;55.20;;;;;;5112826;28;20165;-73
2023/01/17 10:33:52;;;;;;;2.75;1.33;;;16.80;55.10;;;;;;5082274;28;20530;-73
2023/01/17 10:36:23;;;;;;;1.00;0.90;;;16.80;55.00;;;;;;5098569;28;20195;-74
2023/01/17 10:39:19;;;;;;;0.80;0.80;;;16.80;55.00;;;;;;5113496;28;20286;-74
2023/01/17 10:41:49;;;;;;;1.42;1.20;;;16.80;55.00;;;;;;5104840;28;20181;-74
2023/01/17 10:44:37;;;;;;;1.88;1.15;;;16.80;55.10;;;;;;5096766;28;20627;-76
2023/01/17 10:47:09;;;;;;;1.60;0.90;;;16.80;55.10;;;;;;5093086;28;20192;-74
2023/01/17 10:49:36;;;;;;;2.83;1.30;;;16.70;55.10;;;;;;5114874;28;20167;-74
2023/01/17 10:52:34;;;;;;;1.20;1.00;;;16.70;55.10;;;;;;5097063;28;20209;-74
2023/01/17 10:55:20;;;;;;;1.85;1.15;;;16.70;55.00;;;;;;5074317;28;20181;-74
2023/01/17 10:57:47;;;;;;;1.58;1.17;;;16.60;55.00;;;;;;5098954;28;20180;-73
2023/01/17 11:00:42;;;;;;;3.28;1.45;;;16.60;55.00;;;;;;5096498;28;20556;-76
2023/01/17 11:03:11;;;;;;;4.00;1.40;;;16.60;55.10;;;;;;5115162;28;20245;-76
2023/01/17 11:05:39;;;;;;;2.58;1.27;;;16.60;55.00;;;;;;5097153;28;20173;-73
2023/01/17 11:08:14;;;;;;;2.08;1.30;;;16.50;54.90;;;;;;5096202;28;20184;-75
2023/01/17 11:10:43;;;;;;;2.85;1.30;;;16.50;55.00;;;;;;5114500;28;20221;-75
2023/01/17 11:13:27;;;;;;;2.92;1.35;;;16.50;54.90;;;;;;5095994;28;20177;-76
2023/01/17 11:16:01;;;;;;;4.57;1.65;;;16.40;55.10;;;;;;5114158;28;20335;-76
2023/01/17 11:18:28;;;;;;;2.10;1.35;;;16.40;55.10;;;;;;5096859;28;20209;-79
2023/01/17 11:21:10;;;;;;;1.45;1.10;;;16.50;55.10;;;;;;5095830;28;20177;-75
2023/01/17 11:23:37;;;;;;;1.33;1.13;;;16.50;55.00;;;;;;5097317;28;20681;-76
2023/01/17 11:26:04;;;;;;;1.58;1.10;;;16.50;55.00;;;;;;5096328;28;20234;-74
2023/01/17 11:28:34;;;;;;;1.20;1.10;;;16.50;54.90;;;;;;5113928;28;20169;-76
2023/01/17 11:31:21;;;;;;;2.22;1.70;;;16.60;54.80;;;;;;5114778;28;20173;-74
2023/01/17 11:33:52;;;;;;;2.75;1.42;;;16.60;54.70;;;;;;5114349;28;20173;-74
2023/01/17 11:36:36;;;;;;;1.42;1.30;;;16.70;54.60;;;;;;5113795;28;20541;-76
2023/01/17 11:39:04;;;;;;;2.20;1.13;;;16.70;54.30;;;;;;5114158;28;20193;-77
2023/01/17 11:41:40;;;;;;;1.55;1.27;;;16.80;54.20;;;;;;5113283;28;20173;-76
2023/01/17 11:44:32;;;;;;;2.55;1.50;;;16.90;54.10;;;;;;5097694;28;20173;-69
2023/01/17 11:47:12;;;;;;;1.58;1.33;;;17.00;54.10;;;;;;5114014;28;20230;-67
2023/01/17 11:49:45;;;;;;;4.03;1.30;;;17.00;54.00;;;;;;5114996;28;20172;-68
2023/01/17 11:52:17;;;;;;;2.80;1.17;;;17.10;54.00;;;;;;5114076;28;20575;-76
2023/01/17 11:54:46;;;;;;;2.08;1.27;;;17.10;54.00;;;;;;5095530;28;20177;-70
2023/01/17 11:57:27;;;;;;;2.13;1.42;;;17.10;54.00;;;;;;5113261;28;20192;-71
2023/01/17 12:00:14;;;;;;;3.88;1.40;;;17.20;53.90;;;;;;5095188;28;20209;-65
2023/01/17 12:03:01;;;;;;;3.08;1.17;;;17.20;53.90;;;;;;5078189;28;20516;-69
2023/01/17 12:05:44;;;;;;;2.85;1.33;;;17.20;54.00;;;;;;5113676;28;20630;-70
2023/01/17 12:08:21;;;;;;;3.45;1.45;;;17.10;54.20;;;;;;5095121;28;20636;-69
2023/01/17 12:10:53;;;;;;;2.63;1.20;;;17.10;54.30;;;;;;5112885;28;20542;-68
2023/01/17 12:16:31;;;;;;;3.47;1.08;;;17.20;54.40;;;;;;5084614;28;20596;-73
2023/01/17 12:19:03;;;;;;;1.75;1.20;;;17.20;54.40;;;;;;5097094;28;20232;-66
2023/01/17 12:21:33;;;;;;;3.35;1.52;;;17.20;54.40;;;;;;5113899;28;20245;-71
2023/01/17 12:24:25;;;;;;;3.00;1.65;;;17.20;54.50;;;;;;5113001;28;20295;-66
2023/01/17 12:26:57;;;;;;;2.78;1.13;;;17.10;54.60;;;;;;5090232;28;20181;-65
2023/01/17 12:29:32;;;;;;;3.35;1.30;;;17.00;54.60;;;;;;5113398;28;20702;-65
2023/01/17 12:32:26;;;;;;;1.70;1.02;;;17.00;54.70;;;;;;5094780;28;20172;-65
2023/01/17 12:35:03;;;;;;;2.05;1.20;;;17.00;54.70;;;;;;5103768;28;20188;-65
2023/01/17 12:37:30;;;;;;;3.00;1.08;;;17.00;54.80;;;;;;5113610;28;20229;-65
2023/01/17 12:40:04;;;;;;;1.38;1.13;;;17.00;54.90;;;;;;5094871;28;20299;-64
2023/01/17 12:42:36;;;;;;;2.83;1.40;;;17.00;54.90;;;;;;5095299;28;20543;-66
2023/01/17 12:45:05;;;;;;;4.72;1.50;;;17.00;54.80;;;;;;5112550;28;20181;-64
2023/01/17 12:47:32;;;;;;;4.22;1.48;;;17.00;54.80;;;;;;5094857;28;20177;-64
2023/01/17 12:50:01;;;;;;;3.13;1.25;;;17.00;54.80;;;;;;5095406;28;20184;-64
2023/01/17 12:53:13;;;;;;;2.67;1.15;;;17.00;54.80;;;;;;5091904;28;20648;-64
2023/01/17 12:55:51;;;;;;;3.38;1.48;;;17.00;54.70;;;;;;5083022;28;20220;-64
2023/01/17 12:58:44;;;;;;;2.03;1.20;;;17.00;54.80;;;;;;5059125;28;20288;-65
2023/01/17 13:01:21;;;;;;;1.10;1.00;;;17.00;54.80;;;;;;5083087;28;20572;-64
2023/01/17 13:04:11;;;;;;;1.00;0.88;;;17.00;54.90;;;;;;5074598;28;20173;-64
2023/01/17 13:06:57;;;;;;;1.48;1.17;;;17.00;55.00;;;;;;5091711;28;20174;-64
2023/01/17 13:09:23;;;;;;;1.02;0.93;;;17.00;55.00;;;;;;5051532;28;20174;-64
2023/01/17 13:12:08;;;;;;;4.80;1.30;;;17.00;55.60;;;;;;5074573;28;20190;-65
2023/01/17 13:14:34;;;;;;;1.60;1.23;;;17.00;54.90;;;;;;5076474;28;20169;-65
2023/01/17 13:17:04;;;;;;;1.58;1.10;;;17.00;55.00;;;;;;5092548;28;20221;-65
2023/01/17 13:19:35;;;;;;;1.92;1.20;;;17.00;55.00;;;;;;5075209;28;20225;-65
2023/01/17 13:22:03;;;;;;;3.53;1.10;;;16.90;55.00;;;;;;5074530;28;20222;-65
2023/01/17 13:24:32;;;;;;;1.75;1.27;;;17.00;55.20;;;;;;5092754;28;20546;-64
2023/01/17 13:27:31;;;;;;;1.10;1.00;;;16.90;55.20;;;;;;5091990;28;20174;-65
2023/01/17 13:30:18;;;;;;;2.35;1.20;;;16.90;55.20;;;;;;5092438;28;20761;-64
2023/01/17 13:32:54;;;;;;;2.95;1.10;;;16.90;55.20;;;;;;5092277;28;20174;-64
2023/01/17 13:35:45;;;;;;;1.90;1.00;;;16.90;55.30;;;;;;5073832;28;20174;-64
2023/01/17 13:38:20;;;;;;;2.38;1.50;;;16.90;55.30;;;;;;5088502;28;20206;-65
2023/01/17 13:41:04;;;;;;;1.02;0.88;;;16.90;55.00;;;;;;5092402;28;20208;-64
2023/01/17 13:43:34;;;;;;;2.40;1.30;;;16.90;54.70;;;;;;5075177;28;20231;-64
2023/01/17 13:46:02;;;;;;;1.60;1.40;;;17.00;54.70;;;;;;5057962;28;20255;-64
2023/01/17 13:48:29;;;;;;;1.10;1.00;;;16.90;54.60;;;;;;5091920;28;20636;-65
2023/01/17 13:50:56;;;;;;;2.70;1.20;;;17.00;54.60;;;;;;5082173;28;20212;-65
2023/01/17 13:53:34;;;;;;;2.22;1.15;;;17.00;54.50;;;;;;5113032;28;20184;-64
2023/01/17 13:56:20;;;;;;;1.17;0.90;;;17.00;54.40;;;;;;5112094;28;20193;-64
2023/01/17 13:58:56;;;;;;;1.58;0.82;;;17.10;54.40;;;;;;5112186;28;20627;-64
2023/01/17 14:01:22;;;;;;;1.52;1.40;;;17.10;54.40;;;;;;5112897;28;20177;-65
2023/01/17 14:03:50;;;;;;;1.00;0.70;;;17.10;54.40;;;;;;5111661;28;20588;-64
2023/01/17 14:06:35;;;;;;;1.17;1.08;;;17.10;54.50;;;;;;5116511;28;20227;-64
2023/01/17 14:09:07;;;;;;;1.58;0.98;;;17.10;54.50;;;;;;5115453;28;20200;-64
2023/01/17 14:11:35;;;;;;;1.38;1.15;;;17.10;54.40;;;;;;5115980;28;20169;-65
2023/01/17 14:14:42;;;;;;;1.50;1.08;;;17.10;54.60;;;;;;5098253;28;20184;-65
2023/01/17 14:17:21;;;;;;;0.98;0.70;;;17.00;55.40;;;;;;5115227;28;20239;-66
2023/01/17 14:20:17;;;;;;;1.00;0.90;;;17.10;54.90;;;;;;5115619;28;20232;-66
2023/01/17 14:22:56;;;;;;;0.80;0.80;;;17.10;54.70;;;;;;5082379;28;20177;-65
2023/01/17 14:25:27;;;;;;;0.93;0.93;;;17.10;54.80;;;;;;5115222;28;20196;-65
2023/01/17 14:27:54;;;;;;;0.88;0.80;;;17.10;54.90;;;;;;5115695;28;20184;-65